Time;durP1;ratioP1;P1;durP2;ratioP2;P2;SDS_P1;SDS_P2;PMS_P1;PMS_P2;Temp;Humidity;BMP_temperature;BMP_pressure;BME280_temperature;BME280_humidity;BME280_pressure;Samples;Min_cycle;Max_cycle;Signal;HPM_P1;HPM_P2
2022/09/01 07:41:25;;;;;;;2.55;0.65;;;12.10;99.90;12.10;98031.00;;;;5031481;28;81623;-62
2022/09/01 07:44:12;;;;;;;1.77;0.85;;;;;12.20;98030.00;;;;5027721;27;81850;-62
2022/09/01 07:47:14;;;;;;;1.73;0.65;;;;;12.20;98035.00;;;;5020629;28;81723;-63
2022/09/01 07:49:41;;;;;;;1.15;0.68;;;;;12.20;98045.00;;;;5023957;28;81988;-63
2022/09/01 07:52:08;;;;;;;3.15;0.80;;;;;12.20;98042.00;;;;5020550;28;81655;-63
2022/09/01 07:54:36;;;;;;;4.45;0.60;;;;;12.20;98044.00;;;;5020491;28;81519;-63
2022/09/01 07:57:04;;;;;;;1.65;0.60;;;;;12.40;98043.00;;;;5021941;28;81770;-63
2022/09/01 07:59:34;;;;;;;3.10;0.63;;;;;12.30;98039.00;;;;4999380;28;82112;-64
2022/09/01 08:02:07;;;;;;;1.50;0.70;;;;;12.30;98050.00;;;;5017664;28;81660;-64
2022/09/01 08:04:34;;;;;;;1.52;0.73;;;;;12.40;98051.00;;;;5020993;28;81530;-64
2022/09/01 08:07:01;;;;;;;1.70;0.60;;;;;12.20;98031.00;;;;5020330;28;81687;-64
2022/09/01 08:09:29;;;;;;;1.13;0.60;;;;;12.10;98031.00;;;;5020158;28;82390;-63
2022/09/01 08:11:55;;;;;;;2.42;0.40;;;;;12.30;98033.00;;;;5001518;28;81911;-64
2022/09/01 08:14:22;;;;;;;2.47;0.50;;;;;12.50;98034.00;;;;5008562;28;81786;-63
2022/09/01 08:16:50;;;;;;;3.83;0.50;;;;;12.50;98036.00;;;;5053338;27;82976;-64
2022/09/01 08:19:17;;;;;;;2.00;0.70;;;;;12.70;98044.00;;;;5001885;28;84205;-63
2022/09/01 08:22:07;;;;;;;0.63;0.40;;;;;12.60;98036.00;;;;5039339;27;81690;-64
2022/09/01 08:24:44;;;;;;;5.72;0.85;;;;;12.30;98040.00;;;;5021318;28;81813;-64
2022/09/01 08:27:11;;;;;;;6.00;0.90;;;;;12.20;98045.00;;;;5020816;28;81743;-63
2022/09/01 08:29:38;;;;;;;5.15;0.70;;;;;12.30;98055.00;;;;5018581;28;82675;-63
2022/09/01 08:32:05;;;;;;;4.82;1.02;;;;;12.10;98042.00;;;;5017799;28;81676;-64
2022/09/01 08:34:33;;;;;;;2.40;0.80;;;11.80;99.90;11.90;98047.00;;;;5037837;28;82027;-64
2022/09/01 08:37:00;;;;;;;4.13;0.55;;;;;11.90;98045.00;;;;5035573;28;82430;-65
2022/09/01 08:39:27;;;;;;;1.17;0.60;;;;;12.10;98046.00;;;;5035577;28;82700;-64
2022/09/01 08:42:14;;;;;;;5.25;0.70;;;12.00;99.90;12.10;98056.00;;;;5020684;28;81558;-64
2022/09/01 08:44:48;;;;;;;1.13;0.80;;;;;12.20;98046.00;;;;5021777;28;81491;-63
2022/09/01 08:47:17;;;;;;;1.35;0.85;;;12.10;99.90;12.00;98052.00;;;;5003427;28;82086;-65
2022/09/01 08:49:46;;;;;;;6.22;1.10;;;12.00;99.90;12.20;98050.00;;;;4992840;28;82458;-65
2022/09/01 08:52:27;;;;;;;1.30;0.50;;;;;12.30;98058.00;;;;5010704;28;81602;-68
2022/09/01 08:55:13;;;;;;;1.55;0.77;;;12.10;99.90;12.30;98058.00;;;;5007270;28;81447;-65
2022/09/01 08:57:44;;;;;;;4.43;0.70;;;12.20;99.90;12.50;98058.00;;;;5006214;28;81963;-66
2022/09/01 09:00:34;;;;;;;1.38;0.60;;;12.30;99.90;12.50;98045.00;;;;5025232;28;83444;-65
2022/09/01 09:04:07;;;;;;;1.20;0.60;;;12.20;99.90;12.40;98055.00;;;;5023077;28;81708;-66
2022/09/01 09:07:12;;;;;;;2.47;0.50;;;12.40;99.90;12.60;98059.00;;;;5002003;28;81692;-65
2022/09/01 09:09:48;;;;;;;2.55;0.60;;;12.60;99.90;12.80;98054.00;;;;5007896;28;81514;-64
2022/09/01 09:12:54;;;;;;;2.83;0.43;;;12.50;99.90;12.50;98063.00;;;;5006291;28;82524;-66
2022/09/01 09:15:49;;;;;;;2.75;0.50;;;12.40;99.90;12.60;98074.00;;;;5005710;28;81949;-65
2022/09/01 09:18:33;;;;;;;1.30;0.73;;;12.40;99.90;12.40;98074.00;;;;5015743;28;81710;-64
2022/09/01 09:21:32;;;;;;;0.93;0.60;;;12.30;99.90;12.50;98066.00;;;;5005810;28;81589;-65
2022/09/01 09:24:15;;;;;;;1.88;0.80;;;12.20;99.90;12.20;98076.00;;;;5024127;27;83314;-66
2022/09/01 09:26:46;;;;;;;1.65;0.60;;;;;12.10;98073.00;;;;5007479;28;81706;-66
2022/09/01 09:29:13;;;;;;;0.68;0.40;;;;;12.30;98083.00;;;;5019695;28;81509;-64
2022/09/01 09:31:47;;;;;;;1.10;0.60;;;12.10;99.90;12.10;98082.00;;;;5017316;28;82810;-66
2022/09/01 09:34:39;;;;;;;2.72;0.95;;;12.10;99.90;12.30;98093.00;;;;5005580;28;83489;-65
2022/09/01 09:37:29;;;;;;;2.15;0.75;;;12.20;99.90;12.40;98093.00;;;;5006133;28;82866;-68
2022/09/01 09:40:10;;;;;;;1.85;0.60;;;12.40;99.90;12.60;98080.00;;;;5006566;28;83130;-65
2022/09/01 09:43:02;;;;;;;1.42;0.70;;;12.30;99.90;12.50;98088.00;;;;5010965;28;82032;-64
2022/09/01 09:45:39;;;;;;;7.95;0.70;;;12.50;99.90;12.60;98086.00;;;;5012593;28;84729;-66
2022/09/01 09:48:25;;;;;;;3.17;0.63;;;12.70;99.90;12.90;98093.00;;;;5024659;28;82858;-65
2022/09/01 09:50:52;;;;;;;2.10;0.60;;;;;12.80;98099.00;;;;5000559;28;81596;-63
2022/09/01 09:53:28;;;;;;;2.08;0.65;;;;;13.00;98099.00;;;;5005588;28;81779;-64
2022/09/01 09:55:55;;;;;;;2.13;0.70;;;;;13.00;98100.00;;;;5006674;28;83888;-63
2022/09/01 09:58:26;;;;;;;1.70;0.60;;;12.50;99.90;12.60;98107.00;;;;5006096;28;81878;-64
2022/09/01 10:01:34;;;;;;;;;;;12.50;99.90;12.60;98111.00;;;;5005859;28;81842;-65
2022/09/01 10:04:02;;;;;;;0.70;0.50;;;12.60;99.90;12.60;98100.00;;;;5006708;28;81469;-64
2022/09/01 10:06:33;;;;;;;1.08;0.55;;;12.40;99.90;12.60;98103.00;;;;5006552;28;83867;-63
2022/09/01 10:09:26;;;;;;;1.00;0.60;;;12.50;99.90;12.70;98115.00;;;;5005407;28;82804;-63
2022/09/01 10:11:56;;;;;;;3.97;0.70;;;12.50;99.90;12.60;98107.00;;;;5005744;28;81555;-64
2022/09/01 10:14:47;;;;;;;1.05;0.57;;;12.70;99.90;12.70;98113.00;;;;5005506;28;81657;-63
2022/09/01 10:17:22;;;;;;;3.17;0.63;;;12.50;99.90;12.50;98120.00;;;;5004910;28;83384;-65
2022/09/01 10:20:27;;;;;;;3.42;0.60;;;12.40;99.90;12.50;98123.00;;;;5004947;28;82916;-65
2022/09/01 10:22:53;;;;;;;0.88;0.50;;;;;12.60;98122.00;;;;5006022;28;81643;-65
2022/09/01 10:25:25;;;;;;;1.02;0.57;;;12.40;99.90;12.50;98119.00;;;;5006702;28;81423;-65
2022/09/01 10:28:01;;;;;;;2.88;0.70;;;12.30;99.90;12.50;98124.00;;;;5039876;27;82912;-65
2022/09/01 10:30:29;;;;;;;1.63;0.50;;;13.30;99.90;12.60;98111.00;;;;4993458;28;81993;-67
2022/09/01 10:32:59;;;;;;;2.33;0.70;;;12.50;99.90;12.60;98114.00;;;;4998100;28;81781;-64
2022/09/01 10:35:32;;;;;;;2.80;0.90;;;;;12.50;98124.00;;;;5005081;28;81653;-65
2022/09/01 10:38:06;;;;;;;3.50;0.75;;;12.50;99.90;12.60;98115.00;;;;4994137;28;82567;-65
2022/09/01 10:40:32;;;;;;;2.58;0.45;;;;;12.80;98123.00;;;;4996949;28;82061;-65
2022/09/01 10:43:46;;;;;;;6.68;0.60;;;12.80;99.90;12.90;98123.00;;;;5003562;28;81607;-65
2022/09/01 10:46:19;;;;;;;1.27;0.63;;;13.00;99.90;13.10;98123.00;;;;4984606;28;81531;-65
2022/09/01 10:48:54;;;;;;;2.47;0.60;;;13.00;99.90;13.10;98118.00;;;;5003334;28;83302;-66
2022/09/01 10:51:20;;;;;;;1.17;0.60;;;;;12.90;98123.00;;;;4986235;28;81853;-66
2022/09/01 10:53:52;;;;;;;2.55;0.80;;;12.80;99.90;12.90;98120.00;;;;4985808;28;81825;-64
2022/09/01 10:56:25;;;;;;;1.08;0.70;;;;;13.00;98113.00;;;;4986100;28;81717;-66
2022/09/01 10:59:29;;;;;;;1.98;0.60;;;12.90;99.90;13.10;98131.00;;;;4985819;28;83244;-66
2022/09/01 11:02:17;;;;;;;4.60;0.90;;;;;13.20;98125.00;;;;5000153;28;82313;-67
2022/09/01 11:04:46;;;;;;;0.60;0.50;;;13.00;99.90;13.10;98123.00;;;;5006867;28;81488;-65
2022/09/01 11:07:24;;;;;;;4.30;0.63;;;13.00;99.90;13.10;98133.00;;;;4995919;28;82319;-65
2022/09/01 11:10:22;;;;;;;3.17;0.57;;;12.80;99.90;12.90;98131.00;;;;4985851;28;83256;-64
2022/09/01 11:13:20;;;;;;;2.17;0.85;;;12.90;99.90;13.10;98129.00;;;;4983994;28;81853;-66
2022/09/01 11:15:48;;;;;;;6.60;0.90;;;12.90;99.90;13.00;98134.00;;;;5011316;28;81979;-65
2022/09/01 11:18:32;;;;;;;2.22;0.80;;;13.00;99.90;13.20;98128.00;;;;5003103;28;81644;-66
2022/09/01 11:21:27;;;;;;;3.70;0.50;;;13.20;99.90;13.40;98121.00;;;;4985112;28;82251;-64
2022/09/01 11:24:37;;;;;;;2.50;0.82;;;13.20;99.90;13.40;98111.00;;;;4995500;28;81840;-64
2022/09/01 11:27:29;;;;;;;5.65;0.90;;;13.40;99.90;13.60;98122.00;;;;4994706;28;81614;-64
2022/09/01 11:29:57;;;;;;;;;;;13.40;99.90;13.70;98114.00;;;;5022998;28;81841;-65
2022/09/01 11:32:34;;;;;;;0.93;0.57;;;13.60;99.90;13.80;98120.00;;;;5025290;28;81493;-66
2022/09/01 11:35:15;;;;;;;2.38;0.88;;;12.00;99.90;13.70;98118.00;;;;5024466;28;82033;-65
2022/09/01 11:37:42;;;;;;;3.35;0.82;;;13.50;99.90;13.60;98130.00;;;;5024962;28;81651;-63
2022/09/01 11:40:09;;;;;;;2.88;0.88;;;;;13.40;98126.00;;;;5004874;28;82543;-64
2022/09/01 11:42:42;;;;;;;3.10;0.90;;;13.20;99.90;13.40;98129.00;;;;4985037;28;83486;-63
2022/09/01 11:45:27;;;;;;;1.55;0.75;;;13.20;99.90;13.40;98119.00;;;;4985116;28;82709;-63
2022/09/01 11:48:13;;;;;;;4.78;0.75;;;13.40;99.90;13.50;98113.00;;;;5000048;28;81535;-64
2022/09/01 11:50:41;;;;;;;1.17;0.50;;;13.60;99.90;13.70;98121.00;;;;4997438;28;81594;-64
2022/09/01 11:53:09;;;;;;;0.88;0.65;;;;;13.90;98106.00;;;;4990206;28;81586;-64
2022/09/01 11:55:40;;;;;;;0.50;0.50;;;;;14.10;98104.00;;;;4985678;28;83494;-64
2022/09/01 11:58:14;;;;;;;1.50;0.70;;;13.60;99.90;14.00;98107.00;;;;5001286;28;81714;-64
2022/09/01 12:00:41;;;;;;;2.80;1.00;;;13.80;99.90;14.00;98105.00;;;;4977963;28;81694;-65
2022/09/01 12:03:28;;;;;;;1.55;0.60;;;13.80;99.90;14.00;98114.00;;;;4998211;28;82117;-64
2022/09/01 12:06:02;;;;;;;0.82;0.47;;;13.70;99.90;13.90;98103.00;;;;4989448;28;83656;-64
2022/09/01 12:08:33;;;;;;;4.80;0.60;;;13.60;99.90;13.80;98111.00;;;;4991759;28;82219;-64
2022/09/01 12:11:12;;;;;;;4.35;1.05;;;13.70;99.90;13.90;98115.00;;;;4991950;28;81879;-64
2022/09/01 12:13:40;;;;;;;4.63;0.93;;;13.50;99.90;13.90;98102.00;;;;4991380;28;82190;-64
2022/09/01 12:16:09;;;;;;;2.33;0.60;;;13.70;99.90;13.90;98102.00;;;;4985823;28;83511;-64
2022/09/01 12:18:49;;;;;;;2.38;0.60;;;13.80;99.90;13.90;98082.00;;;;4994096;28;84311;-64
2022/09/01 12:21:27;;;;;;;4.65;0.73;;;13.80;99.90;13.90;98081.00;;;;4998821;28;81638;-64
2022/09/01 12:24:18;;;;;;;10.52;0.85;;;13.80;99.90;13.90;98091.00;;;;5003242;28;83285;-64
2022/09/01 12:26:47;;;;;;;2.25;0.60;;;13.80;99.90;13.90;98086.00;;;;5004448;28;83489;-64
2022/09/01 12:29:14;;;;;;;2.10;0.80;;;13.70;99.90;13.90;98087.00;;;;5018558;28;83448;-64
2022/09/01 12:31:44;;;;;;;1.30;0.73;;;13.80;99.90;13.90;98090.00;;;;5004392;28;82237;-70
2022/09/01 12:34:31;;;;;;;1.23;0.70;;;13.80;99.90;14.00;98083.00;;;;5004628;28;82073;-66
2022/09/01 12:37:25;;;;;;;2.10;0.60;;;13.80;99.90;13.90;98088.00;;;;4997337;28;83139;-70
2022/09/01 12:39:56;;;;;;;0.98;0.68;;;13.80;99.90;14.00;98093.00;;;;5006211;28;82504;-64
2022/09/01 12:42:29;;;;;;;2.15;0.80;;;13.80;99.90;13.90;98091.00;;;;5005974;28;82997;-66
2022/09/01 12:45:07;;;;;;;3.28;0.80;;;13.90;99.90;14.10;98085.00;;;;5006536;28;83476;-66
2022/09/01 12:47:36;;;;;;;4.80;1.30;;;;;14.10;98087.00;;;;5008582;28;83588;-69
2022/09/01 12:50:14;;;;;;;1.45;0.75;;;13.80;99.90;13.90;98084.00;;;;5010072;28;83006;-68
2022/09/01 12:53:02;;;;;;;1.40;0.70;;;13.80;99.90;13.90;98084.00;;;;4999386;28;81934;-66
2022/09/01 12:55:37;;;;;;;2.55;0.60;;;13.80;99.90;14.00;98074.00;;;;5001673;28;83430;-66
2022/09/01 12:58:07;;;;;;;2.55;0.88;;;13.70;99.90;13.80;98088.00;;;;4990977;28;83843;-65
2022/09/01 13:00:38;;;;;;;1.23;0.80;;;13.50;99.90;13.70;98099.00;;;;4991747;28;82326;-67
2022/09/01 13:03:16;;;;;;;2.38;0.75;;;13.70;99.90;13.80;98093.00;;;;4985307;28;81956;-66
2022/09/01 13:05:51;;;;;;;4.82;0.80;;;13.80;99.90;14.00;98079.00;;;;4992228;28;83414;-66
2022/09/01 13:08:30;;;;;;;1.20;0.60;;;13.90;99.90;14.10;98083.00;;;;4985605;28;83668;-67
2022/09/01 13:11:10;;;;;;;4.03;0.82;;;14.00;99.90;14.10;98084.00;;;;4984981;28;84553;-65
2022/09/01 13:13:36;;;;;;;3.70;0.90;;;;;14.30;98068.00;;;;4985521;28;81888;-65
2022/09/01 13:16:11;;;;;;;2.53;0.77;;;;;14.40;98062.00;;;;4985909;28;83227;-65
2022/09/01 13:18:39;;;;;;;3.85;1.17;;;14.30;99.90;14.50;98063.00;;;;5002710;28;82654;-64
2022/09/01 13:21:06;;;;;;;1.77;0.70;;;14.40;99.90;14.60;98087.00;;;;5006034;28;82817;-64
2022/09/01 13:23:32;;;;;;;2.50;0.70;;;;;14.60;98067.00;;;;4994105;28;81895;-65
2022/09/01 13:25:59;;;;;;;0.73;0.65;;;;;14.40;98074.00;;;;4987786;28;82278;-68
2022/09/01 13:28:26;;;;;;;2.22;0.73;;;14.10;99.90;14.30;98069.00;;;;5011943;28;82355;-65
2022/09/01 13:30:59;;;;;;;1.67;0.73;;;14.20;99.90;14.40;98079.00;;;;5025534;28;83420;-66
2022/09/01 13:33:26;;;;;;;4.13;0.70;;;;;14.40;98092.00;;;;5025015;28;82933;-64
2022/09/01 13:35:53;;;;;;;2.25;0.70;;;14.30;99.90;14.40;98086.00;;;;5026435;28;82154;-66
2022/09/01 13:38:20;;;;;;;2.42;0.70;;;14.10;99.90;14.30;98078.00;;;;5025900;28;84036;-66
2022/09/01 13:40:48;;;;;;;4.22;0.70;;;14.10;99.90;14.20;98083.00;;;;5006968;28;82298;-65
2022/09/01 13:43:19;;;;;;;3.35;0.80;;;14.20;99.90;14.30;98070.00;;;;5005826;28;82073;-64
2022/09/01 13:45:46;;;;;;;3.83;0.70;;;;;14.40;98076.00;;;;5005237;28;82443;-65
2022/09/01 13:48:14;;;;;;;3.58;0.75;;;14.30;99.90;14.50;98069.00;;;;5011292;28;82472;-65
2022/09/01 13:50:41;;;;;;;1.27;0.90;;;;;14.40;98065.00;;;;5005830;28;82087;-65
2022/09/01 13:53:07;;;;;;;1.75;0.77;;;;;14.00;98075.00;;;;5005840;28;82185;-65
2022/09/01 13:55:38;;;;;;;0.73;0.60;;;13.90;99.90;13.90;98062.00;;;;5005737;28;83401;-66
2022/09/01 13:58:05;;;;;;;6.22;1.27;;;;;14.00;98062.00;;;;4989244;28;83442;-65
2022/09/01 14:00:43;;;;;;;2.78;0.70;;;13.90;99.90;14.20;98060.00;;;;5002464;28;84042;-65
2022/09/01 14:03:17;;;;;;;2.22;0.70;;;14.10;99.90;14.20;98075.00;;;;5006122;28;81963;-65
2022/09/01 14:05:46;;;;;;;4.25;0.80;;;13.90;99.90;14.10;98064.00;;;;5007279;28;82474;-66
2022/09/01 14:08:16;;;;;;;4.90;0.75;;;13.70;99.90;13.70;98078.00;;;;5005357;28;82580;-66
2022/09/01 14:10:49;;;;;;;1.45;0.60;;;13.50;99.90;13.50;98078.00;;;;4997333;28;82316;-65
2022/09/01 14:13:16;;;;;;;6.90;0.90;;;;;13.50;98079.00;;;;4985249;28;81901;-66
2022/09/01 14:15:43;;;;;;;1.45;0.60;;;;;13.60;98080.00;;;;4985699;28;82207;-67
2022/09/01 14:18:10;;;;;;;3.13;0.65;;;;;13.60;98079.00;;;;4996126;28;83605;-66
2022/09/01 14:20:40;;;;;;;3.28;1.05;;;13.60;99.90;13.70;98079.00;;;;5004896;28;82490;-67
2022/09/01 14:23:09;;;;;;;3.90;0.70;;;13.70;99.90;13.70;98092.00;;;;5005085;28;82739;-67
2022/09/01 14:25:41;;;;;;;1.75;0.50;;;13.60;99.90;13.70;98090.00;;;;5005416;28;82234;-67
2022/09/01 14:28:07;;;;;;;;;;;13.60;99.90;13.70;98076.00;;;;5005105;28;82352;-66
2022/09/01 14:30:34;;;;;;;1.70;0.70;;;;;13.60;98075.00;;;;5003057;28;82798;-66
2022/09/01 14:33:01;;;;;;;1.30;0.70;;;;;13.30;98087.00;;;;4987255;28;81889;-66
2022/09/01 14:35:32;;;;;;;5.68;0.77;;;13.10;99.90;13.10;98069.00;;;;4984939;28;83397;-66
2022/09/01 14:37:59;;;;;;;2.40;0.77;;;;;13.00;98088.00;;;;4985594;28;82407;-67
2022/09/01 14:40:27;;;;;;;2.38;0.90;;;;;12.80;98087.00;;;;5016303;28;83546;-67
2022/09/01 14:42:54;;;;;;;5.38;1.63;;;;;12.70;98086.00;;;;4986006;28;83627;-64
2022/09/01 14:45:27;;;;;;;3.90;0.70;;;12.60;99.90;12.60;98083.00;;;;4993512;28;83403;-65
2022/09/01 14:47:57;;;;;;;3.08;1.00;;;12.40;99.90;12.50;98086.00;;;;4995580;28;83485;-65
2022/09/01 14:50:24;;;;;;;4.38;1.00;;;;;12.50;98087.00;;;;5005167;28;82984;-65
2022/09/01 14:52:54;;;;;;;1.17;0.70;;;12.50;99.90;12.50;98101.00;;;;5005497;28;82414;-65
2022/09/01 14:55:24;;;;;;;5.28;0.90;;;12.40;99.90;12.40;98124.00;;;;5003789;28;82313;-65
2022/09/01 14:57:51;;;;;;;4.35;0.90;;;;;11.90;98127.00;;;;5005036;28;81759;-65
2022/09/01 15:00:18;;;;;;;5.53;1.35;;;11.70;99.90;11.70;98128.00;;;;5003888;28;83402;-65
2022/09/01 15:02:44;;;;;;;4.82;1.00;;;11.60;99.90;11.50;98113.00;;;;5005319;28;81885;-66
2022/09/01 15:05:12;;;;;;;2.47;0.80;;;11.30;99.90;11.30;98116.00;;;;5004377;28;84841;-65
2022/09/01 15:07:41;;;;;;;2.25;1.00;;;11.30;99.90;11.20;98120.00;;;;5004966;28;82330;-65
2022/09/01 15:10:10;;;;;;;2.60;0.82;;;11.30;99.90;11.20;98129.00;;;;5004286;28;82224;-66
2022/09/01 15:12:38;;;;;;;3.80;1.08;;;;;11.10;98118.00;;;;5003327;28;82875;-66
2022/09/01 15:15:06;;;;;;;4.78;1.13;;;11.00;99.90;10.90;98115.00;;;;5003675;28;82249;-66
2022/09/01 15:17:33;;;;;;;1.15;0.70;;;;;10.70;98128.00;;;;4985185;28;83918;-66
2022/09/01 15:20:43;;;;;;;2.50;0.93;;;10.60;99.90;10.50;98118.00;;;;4984923;28;82254;-65
2022/09/01 15:22:49;;;;;;;3.42;1.05;;;10.50;99.90;10.30;98122.00;;;;4984865;28;81924;-65
2022/09/01 15:25:16;;;;;;;5.07;1.02;;;10.40;99.90;10.30;98113.00;;;;4984165;28;82537;-65
2022/09/01 15:27:44;;;;;;;4.75;1.20;;;;;10.30;98115.00;;;;4997358;28;82592;-65
2022/09/01 15:30:15;;;;;;;3.53;0.93;;;;;10.40;98120.00;;;;5024108;28;82751;-66
2022/09/01 15:32:44;;;;;;;2.25;1.05;;;10.20;99.90;10.40;98118.00;;;;5023201;28;82233;-65
2022/09/01 15:35:12;;;;;;;4.18;1.00;;;10.50;99.90;10.40;98114.00;;;;5024759;28;82302;-65
2022/09/01 15:37:38;;;;;;;1.75;0.88;;;;;10.30;98114.00;;;;5023060;28;83352;-65
2022/09/01 15:40:06;;;;;;;4.47;1.00;;;10.40;99.90;10.20;98103.00;;;;5013815;28;83262;-65
2022/09/01 15:42:35;;;;;;;5.60;1.60;;;10.40;99.90;10.20;98104.00;;;;5004412;28;82211;-66
2022/09/01 15:45:06;;;;;;;6.00;1.88;;;10.30;99.90;10.20;98102.00;;;;5002018;28;82362;-64
2022/09/01 15:47:33;;;;;;;3.47;1.52;;;;;10.20;98096.00;;;;5006270;28;81828;-65
2022/09/01 15:50:00;;;;;;;3.45;1.55;;;;;10.20;98108.00;;;;5007242;28;83551;-65
2022/09/01 15:52:27;;;;;;;3.55;1.70;;;;;10.20;98104.00;;;;5004204;28;82140;-65
2022/09/01 15:54:53;;;;;;;2.45;1.50;;;;;10.20;98104.00;;;;4996274;28;82291;-65
2022/09/01 15:57:20;;;;;;;4.10;1.63;;;;;10.30;98103.00;;;;4993938;28;83592;-65
2022/09/01 15:59:46;;;;;;;2.03;1.30;;;;;10.30;98104.00;;;;4995074;28;82704;-65
2022/09/01 16:02:16;;;;;;;6.47;1.98;;;;;10.40;98100.00;;;;5003522;28;82839;-65
2022/09/01 16:04:43;;;;;;;3.65;1.70;;;10.40;99.90;10.40;98103.00;;;;5007598;28;82039;-65
2022/09/01 16:07:09;;;;;;;5.38;1.80;;;;;10.50;98104.00;;;;5007560;28;82611;-65
2022/09/01 16:09:36;;;;;;;8.38;1.75;;;;;10.60;98103.00;;;;5001083;28;82369;-64
2022/09/01 16:12:04;;;;;;;4.80;1.95;;;10.70;99.90;10.60;98120.00;;;;4987691;28;81869;-64
2022/09/01 16:14:31;;;;;;;3.38;1.58;;;;;10.60;98119.00;;;;4987454;28;82296;-64
2022/09/01 16:17:03;;;;;;;2.83;1.33;;;;;10.40;98125.00;;;;4987456;28;84807;-65
2022/09/01 16:19:38;;;;;;;2.15;0.70;;;;;10.20;98107.00;;;;4988156;28;81475;-65
2022/09/01 16:22:28;;;;;;;3.75;1.15;;;10.20;99.90;10.10;98097.00;;;;5020096;28;82328;-66
2022/09/01 16:24:59;;;;;;;2.40;0.80;;;10.00;99.90;9.90;98112.00;;;;4987387;28;83580;-64
2022/09/01 16:27:42;;;;;;;2.53;1.05;;;9.90;99.90;9.80;98103.00;;;;4999136;28;83488;-65
2022/09/01 16:30:17;;;;;;;1.65;0.90;;;9.80;99.90;9.70;98109.00;;;;5011588;28;83461;-65
2022/09/01 16:32:46;;;;;;;3.38;0.98;;;9.80;99.90;9.60;98100.00;;;;5000287;28;82694;-65
2022/09/01 16:35:15;;;;;;;1.92;1.15;;;;;9.50;98101.00;;;;4996416;28;83385;-65
2022/09/01 16:37:52;;;;;;;2.10;1.10;;;9.60;99.90;9.50;98107.00;;;;5002607;28;83781;-64
2022/09/01 16:40:38;;;;;;;2.65;1.13;;;;;9.40;98103.00;;;;5000608;28;82467;-65
2022/09/01 16:43:33;;;;;;;3.13;1.30;;;9.50;99.90;9.20;98100.00;;;;5002755;28;81899;-65
2022/09/01 16:46:24;;;;;;;2.40;1.40;;;9.40;99.90;9.10;98110.00;;;;5001873;28;82260;-66
2022/09/01 16:49:16;;;;;;;6.10;2.10;;;9.30;99.90;9.00;98105.00;;;;5005158;28;82727;-63
2022/09/01 16:52:29;;;;;;;2.92;1.60;;;9.10;99.90;8.90;98109.00;;;;4986046;28;84302;-63
2022/09/01 16:55:02;;;;;;;2.78;1.58;;;;;8.80;98103.00;;;;5003680;28;83366;-63
2022/09/01 16:57:47;;;;;;;2.78;1.65;;;;;8.80;98109.00;;;;5003170;28;82401;-63
2022/09/01 17:00:17;;;;;;;4.07;2.25;;;8.90;99.90;8.70;98107.00;;;;5005270;28;82713;-63
2022/09/01 17:03:03;;;;;;;8.13;4.40;;;8.90;99.90;8.60;98104.00;;;;5004023;28;82278;-62
2022/09/01 17:05:56;;;;;;;6.38;3.40;;;8.80;99.90;8.60;98114.00;;;;5002214;28;83533;-65
2022/09/01 17:08:44;;;;;;;5.10;2.47;;;8.80;99.90;8.60;98119.00;;;;5000928;28;82337;-63
2022/09/01 17:11:24;;;;;;;4.97;2.75;;;8.80;99.90;8.50;98111.00;;;;5003131;28;82517;-64
2022/09/01 17:13:51;;;;;;;4.40;2.42;;;8.80;99.90;8.50;98123.00;;;;5003995;28;82371;-64
2022/09/01 17:16:41;;;;;;;5.07;2.47;;;8.70;99.90;8.50;98118.00;;;;5004584;28;81822;-64
2022/09/01 17:19:17;;;;;;;3.70;2.20;;;8.70;99.90;8.50;98123.00;;;;5003130;28;82888;-64
2022/09/01 17:21:52;;;;;;;4.25;2.33;;;8.70;99.90;8.50;98120.00;;;;5003457;28;84491;-64
2022/09/01 17:24:43;;;;;;;3.67;2.95;;;8.70;99.90;8.40;98123.00;;;;5004540;28;84311;-64
2022/09/01 17:27:18;;;;;;;4.88;2.90;;;;;8.50;98113.00;;;;5004043;28;81921;-64
2022/09/01 17:29:46;;;;;;;5.07;3.65;;;;;8.50;98116.00;;;;5020433;28;81847;-64
2022/09/01 17:32:28;;;;;;;6.45;3.60;;;8.70;99.90;8.50;98113.00;;;;5024429;28;83319;-65
2022/09/01 17:35:38;;;;;;;4.38;3.10;;;8.70;99.90;8.50;98122.00;;;;5024782;28;83232;-65
2022/09/01 17:38:39;;;;;;;3.80;2.55;;;8.70;99.90;8.50;98116.00;;;;5023736;28;82285;-65
2022/09/01 17:41:14;;;;;;;5.32;3.55;;;8.70;99.90;8.50;98124.00;;;;5005792;28;83354;-65
2022/09/01 17:44:11;;;;;;;8.32;3.08;;;8.70;99.90;8.50;98117.00;;;;5003416;28;83613;-64
2022/09/01 17:46:53;;;;;;;6.25;3.50;;;;;8.50;98120.00;;;;5001102;28;84586;-63
2022/09/01 17:49:49;;;;;;;;;;;8.70;99.90;8.40;98116.00;;;;5009203;28;83072;-63
2022/09/01 17:52:25;;;;;;;4.90;3.20;;;8.70;99.90;8.40;98119.00;;;;5004314;28;82306;-63
2022/09/01 17:55:22;;;;;;;5.88;3.50;;;8.60;99.90;8.40;98114.00;;;;5004366;28;82472;-63
2022/09/01 17:58:04;;;;;;;5.57;3.28;;;8.60;99.90;8.30;98116.00;;;;5003243;28;83412;-63
2022/09/01 18:00:39;;;;;;;3.90;2.70;;;8.60;99.90;8.30;98111.00;;;;5003226;28;82091;-63
2022/09/01 18:03:17;;;;;;;6.68;3.30;;;8.70;99.90;8.40;98104.00;;;;5002938;28;83576;-63
2022/09/01 18:06:07;;;;;;;4.30;2.75;;;8.70;99.90;8.40;98116.00;;;;5003435;28;83595;-64
2022/09/01 18:08:45;;;;;;;6.40;3.13;;;8.80;99.90;8.50;98104.00;;;;5002891;28;82725;-64
2022/09/01 18:11:27;;;;;;;5.88;2.72;;;8.80;99.90;8.60;98110.00;;;;5003414;28;82407;-63
2022/09/01 18:14:28;;;;;;;3.88;2.45;;;8.90;99.90;8.70;98108.00;;;;4988729;28;82010;-63
2022/09/01 18:17:20;;;;;;;8.95;3.33;;;9.00;99.90;8.80;98105.00;;;;5001905;28;84559;-63
2022/09/01 18:20:04;;;;;;;6.18;2.40;;;9.10;99.90;8.90;98109.00;;;;5002628;28;84440;-63
2022/09/01 18:22:46;;;;;;;7.32;2.78;;;9.20;99.90;9.00;98111.00;;;;5003519;28;81873;-63
2022/09/01 18:25:35;;;;;;;7.13;2.83;;;9.20;99.90;9.00;98113.00;;;;4997836;28;81869;-63
2022/09/01 18:28:02;;;;;;;5.82;2.58;;;;;9.10;98110.00;;;;5001533;28;82230;-63
2022/09/01 18:30:38;;;;;;;6.47;2.90;;;9.30;99.90;9.00;98105.00;;;;4998302;28;84304;-63
2022/09/01 18:33:48;;;;;;;5.60;2.42;;;9.20;99.90;9.00;98109.00;;;;5002861;28;81964;-65
2022/09/01 18:36:37;;;;;;;7.78;2.30;;;9.10;99.90;8.90;98105.00;;;;5002696;28;83250;-63
2022/09/01 18:39:42;;;;;;;9.98;2.60;;;9.10;99.90;8.80;98119.00;;;;5003525;28;82688;-64
2022/09/01 18:42:48;;;;;;;5.90;2.38;;;9.00;99.90;8.80;98121.00;;;;5002437;28;81956;-64
2022/09/01 18:45:49;;;;;;;7.65;2.33;;;9.00;99.90;8.80;98107.00;;;;4999497;28;83027;-64
2022/09/01 18:48:31;;;;;;;3.45;2.08;;;8.90;99.90;8.60;98109.00;;;;4994442;28;83513;-64
2022/09/01 18:51:34;;;;;;;4.57;2.47;;;8.70;99.90;8.50;98112.00;;;;5003565;28;83105;-64
2022/09/01 18:54:06;;;;;;;3.72;2.75;;;8.60;99.90;8.40;98109.00;;;;5002871;28;82753;-64
2022/09/01 18:57:01;;;;;;;7.97;3.50;;;8.50;99.90;8.30;98104.00;;;;4988863;28;82203;-64
2022/09/01 19:00:18;;;;;;;9.30;3.30;;;8.50;99.90;8.30;98100.00;;;;4987849;28;83371;-64
2022/09/01 19:02:58;;;;;;;7.10;2.85;;;8.40;99.90;8.20;98096.00;;;;4999237;28;82198;-64
2022/09/01 19:05:31;;;;;;;8.80;2.95;;;;;8.20;98107.00;;;;5002913;28;82236;-64
2022/09/01 19:08:15;;;;;;;10.80;2.60;;;8.40;99.90;8.20;98102.00;;;;5003547;28;82469;-64
2022/09/01 19:11:12;;;;;;;4.60;2.60;;;8.30;99.90;8.10;98106.00;;;;5002020;28;83649;-64
2022/09/01 19:13:59;;;;;;;8.68;2.60;;;8.30;99.90;8.00;98096.00;;;;5001221;28;84783;-64
2022/09/01 19:16:44;;;;;;;5.70;3.20;;;8.20;99.90;8.00;98103.00;;;;5002719;28;83298;-64
2022/09/01 19:19:42;;;;;;;6.18;3.17;;;8.10;99.90;7.80;98091.00;;;;4998020;28;83689;-64
2022/09/01 19:22:18;;;;;;;3.67;2.70;;;8.10;99.90;7.80;98092.00;;;;4996592;28;83360;-64
2022/09/01 19:28:29;;;;;;;7.32;2.20;;;7.90;99.90;7.60;98083.00;;;;4996169;28;83549;-62
2022/09/01 19:31:12;;;;;;;4.45;2.20;;;7.90;99.90;7.60;98082.00;;;;5009728;28;82004;-62
2022/09/01 19:33:46;;;;;;;3.05;1.77;;;7.80;99.90;7.60;98087.00;;;;5001710;28;82274;-62
2022/09/01 19:36:25;;;;;;;6.07;2.40;;;7.80;99.90;7.50;98094.00;;;;4992285;28;83488;-62
2022/09/01 19:38:52;;;;;;;4.93;2.40;;;;;7.50;98088.00;;;;5001268;28;82395;-63
2022/09/01 19:41:25;;;;;;;6.05;3.25;;;7.80;99.90;7.40;98091.00;;;;5000973;28;83241;-63
2022/09/01 19:44:07;;;;;;;5.97;2.25;;;7.70;99.90;7.40;98095.00;;;;5001797;28;83400;-62
2022/09/01 19:46:48;;;;;;;3.80;2.13;;;7.70;99.90;7.40;98094.00;;;;5002107;28;82493;-63
2022/09/01 19:49:18;;;;;;;4.72;2.38;;;7.70;99.90;7.30;98089.00;;;;5007687;28;82338;-64
2022/09/01 19:52:14;;;;;;;5.60;2.20;;;7.70;99.90;7.30;98089.00;;;;5003100;28;82157;-64